createdAt,value
2018-02-06T00:00:05.675Z,1.01
2018-02-06T00:02:33.230Z,0.93
2018-02-06T00:05:00.846Z,0.92
2018-02-06T00:07:28.394Z,0.90
2018-02-06T00:09:55.938Z,1.13
2018-02-06T00:12:23.546Z,1.39
2018-02-06T00:14:51.130Z,1.34
2018-02-06T00:17:18.694Z,1.38
2018-02-06T00:19:46.274Z,1.28
2018-02-06T00:22:15.033Z,1.06
2018-02-06T00:24:42.616Z,1.10
2018-02-06T00:27:10.357Z,1.24
2018-02-06T00:29:37.926Z,1.19
2018-02-06T00:32:05.479Z,1.08
2018-02-06T00:34:33.075Z,0.93
2018-02-06T00:37:00.640Z,0.97
2018-02-06T00:39:28.203Z,1.23
2018-02-06T00:41:55.788Z,1.17
2018-02-06T00:44:24.347Z,0.87
2018-02-06T00:46:51.898Z,0.81
2018-02-06T00:49:19.558Z,0.70
2018-02-06T00:51:47.104Z,0.72
2018-02-06T00:54:14.646Z,0.59
2018-02-06T00:56:42.248Z,0.57
2018-02-06T00:59:09.783Z,0.61
2018-02-06T01:01:37.326Z,0.42
2018-02-06T01:04:05.027Z,0.27
2018-02-06T01:06:32.596Z,0.19
2018-02-06T01:09:00.142Z,0.24
2018-02-06T01:11:27.745Z,0.51
2018-02-06T01:13:55.296Z,0.65
2018-02-06T01:16:22.845Z,0.47
2018-02-06T01:18:50.536Z,0.25
2018-02-06T01:21:18.123Z,0.20
2018-02-06T01:23:45.673Z,0.00
2018-02-06T01:26:13.542Z,-0.09
2018-02-06T01:28:41.101Z,-0.16
2018-02-06T01:31:08.653Z,-0.25
2018-02-06T01:33:36.236Z,-0.27
2018-02-06T01:36:03.791Z,-0.37
2018-02-06T01:38:31.353Z,-0.42
2018-02-06T01:40:58.940Z,-0.46
2018-02-06T01:43:26.507Z,-0.45
2018-02-06T01:45:54.064Z,-0.27
2018-02-06T01:48:21.806Z,-0.04
2018-02-06T01:50:49.321Z,-0.29
2018-02-06T01:53:16.872Z,-0.13
2018-02-06T01:55:44.430Z,-0.22
2018-02-06T01:58:11.974Z,-0.23
2018-02-06T02:00:39.625Z,-0.21
2018-02-06T02:03:07.234Z,-0.16
2018-02-06T02:05:34.776Z,-0.13
2018-02-06T02:08:02.354Z,-0.41
2018-02-06T02:10:29.928Z,-0.55
2018-02-06T02:12:57.476Z,-0.58
2018-02-06T02:15:25.063Z,-0.44
2018-02-06T02:17:52.630Z,-0.44
2018-02-06T02:20:20.186Z,-0.23
2018-02-06T02:22:47.880Z,-0.38
2018-02-06T02:25:15.435Z,-0.44
2018-02-06T02:27:42.997Z,-0.56
2018-02-06T02:30:10.737Z,-0.64
2018-02-06T02:32:38.291Z,-0.73
2018-02-06T02:35:05.842Z,-0.76
2018-02-06T02:37:33.573Z,-0.54
2018-02-06T02:40:01.120Z,-0.31
2018-02-06T04:40:32.012Z,-1.06
2018-02-06T04:42:59.711Z,-0.98
2018-02-06T04:45:27.301Z,-1.22
2018-02-06T04:47:54.889Z,-1.32
2018-02-06T04:50:22.633Z,-1.37
2018-02-06T04:52:50.191Z,-1.34
2018-02-06T04:55:17.749Z,-1.15
2018-02-06T04:57:45.385Z,-0.93
2018-02-06T05:00:12.935Z,-1.04
2018-02-06T05:02:40.522Z,-1.00
2018-02-06T05:05:08.130Z,-1.12
2018-02-06T05:07:35.691Z,-1.19
2018-02-06T05:10:03.249Z,-1.02
2018-02-06T05:12:31.038Z,-1.03
2018-02-06T05:14:58.642Z,-0.93
2018-02-06T05:17:26.174Z,-0.82
2018-02-06T05:19:53.763Z,-1.06
2018-02-06T05:22:21.322Z,-1.07
2018-02-06T05:24:48.874Z,-1.22
2018-02-06T05:27:16.450Z,-1.01
2018-02-06T05:29:44.007Z,-0.96
2018-02-06T05:32:11.584Z,-0.95
2018-02-06T05:34:39.179Z,-0.69
2018-02-06T05:37:06.735Z,-0.92
2018-02-06T05:39:34.302Z,-0.87
2018-02-06T05:42:01.987Z,-0.70
2018-02-06T05:44:29.588Z,-0.58
2018-02-06T05:46:57.130Z,-0.47
2018-02-06T05:49:24.821Z,-0.88
2018-02-06T05:51:52.373Z,-1.03
2018-02-06T05:54:19.933Z,-1.08
2018-02-06T05:56:47.481Z,-1.11
2018-02-06T05:59:15.037Z,-1.09
2018-02-06T06:01:42.769Z,-1.06
2018-02-06T06:04:10.313Z,-0.99
2018-02-06T06:06:37.888Z,-0.91
2018-02-06T06:09:05.501Z,-0.88
2018-02-06T06:11:33.052Z,-0.57
2018-02-06T06:14:00.602Z,-0.39
2018-02-06T06:16:28.578Z,-0.57
2018-02-06T06:18:56.125Z,-0.58
2018-02-06T06:21:23.699Z,-0.59
2018-02-06T06:23:51.434Z,-0.50
2018-02-06T06:26:19.018Z,-0.35
2018-02-06T06:28:46.576Z,-0.34
2018-02-06T06:31:14.424Z,-0.37
2018-02-06T06:33:42.009Z,-0.27
2018-02-06T06:36:09.558Z,0.37
2018-02-06T06:38:37.205Z,0.69
2018-02-06T06:41:04.769Z,0.65
2018-02-06T06:43:32.318Z,0.83
2018-02-06T06:46:00.201Z,1.04
2018-02-06T06:48:27.760Z,1.29
2018-02-06T06:50:55.319Z,1.53
2018-02-06T06:53:23.183Z,2.01
2018-02-06T06:55:50.734Z,2.96
2018-02-06T06:58:18.277Z,3.40
2018-02-06T07:00:45.851Z,3.47
2018-02-06T07:03:13.397Z,3.42
2018-02-06T07:05:40.941Z,3.30
2018-02-06T07:08:08.675Z,3.28
2018-02-06T07:10:36.226Z,3.38
2018-02-06T07:13:03.780Z,3.33
2018-02-06T07:15:31.534Z,2.99
2018-02-06T07:17:59.085Z,2.61
2018-02-06T07:20:26.657Z,2.59
2018-02-06T07:22:54.346Z,2.84
2018-02-06T07:25:21.905Z,2.94
2018-02-06T07:27:49.454Z,3.19
2018-02-06T07:30:17.204Z,2.99
2018-02-06T07:32:44.767Z,3.28
2018-02-06T07:35:12.327Z,3.30
2018-02-06T07:37:40.199Z,3.18
2018-02-06T07:40:07.759Z,3.36
2018-02-06T07:42:35.337Z,3.25
2018-02-06T07:45:03.131Z,2.74
2018-02-06T07:47:30.715Z,2.65
2018-02-06T07:49:58.281Z,3.01
2018-02-06T07:52:25.893Z,2.97
2018-02-06T07:54:53.480Z,3.17
2018-02-06T07:57:21.050Z,3.39
2018-02-06T07:59:48.620Z,3.58
2018-02-06T08:02:16.187Z,3.64
2018-02-06T08:04:43.743Z,3.74
2018-02-06T08:07:11.342Z,3.82
2018-02-06T08:09:38.898Z,3.28
2018-02-06T08:12:06.459Z,3.38
2018-02-06T08:14:34.042Z,3.61
2018-02-06T08:17:01.596Z,3.29
2018-02-06T08:19:29.164Z,3.49
2018-02-06T08:21:56.764Z,3.62
2018-02-06T08:24:24.320Z,3.79
2018-02-06T08:26:51.894Z,3.85
2018-02-06T08:29:19.495Z,3.82
2018-02-06T08:31:47.672Z,3.63
2018-02-06T08:34:15.223Z,3.83
2018-02-06T08:36:43.032Z,3.96
2018-02-06T08:39:10.555Z,4.22
2018-02-06T08:41:38.097Z,4.34
2018-02-06T08:44:06.451Z,4.32
2018-02-06T08:46:34.011Z,4.42
2018-02-06T08:49:01.569Z,4.36
2018-02-06T08:51:30.648Z,4.50
2018-02-06T08:53:58.220Z,4.57
2018-02-06T08:56:25.765Z,4.61
2018-02-06T08:58:53.338Z,4.57
2018-02-06T09:01:20.883Z,4.54
2018-02-06T09:03:48.421Z,4.51
2018-02-06T09:06:16.187Z,4.55
2018-02-06T09:08:43.756Z,4.71
2018-02-06T09:11:11.332Z,4.81
2018-02-06T09:13:39.031Z,4.66
2018-02-06T09:16:06.588Z,4.38
2018-02-06T09:18:34.166Z,4.56
2018-02-06T09:21:02.738Z,4.56
2018-02-06T09:23:30.286Z,4.71
2018-02-06T09:25:57.855Z,4.81
2018-02-06T09:28:25.446Z,4.85
2018-02-06T09:30:53.012Z,4.84
2018-02-06T09:33:20.592Z,4.82
2018-02-06T09:35:48.187Z,4.82
2018-02-06T09:38:15.738Z,4.62
2018-02-06T09:40:43.291Z,4.63
2018-02-06T09:43:10.874Z,4.71
2018-02-06T09:45:38.431Z,4.64
2018-02-06T09:48:05.987Z,4.80
2018-02-06T09:50:33.690Z,4.93
2018-02-06T09:53:01.231Z,4.88
2018-02-06T09:55:28.781Z,4.67
2018-02-06T09:57:58.152Z,4.91
2018-02-06T10:00:25.707Z,4.91
2018-02-06T10:02:54.165Z,5.03
2018-02-06T10:05:22.221Z,5.04
2018-02-06T10:07:49.768Z,5.18
2018-02-06T10:10:17.347Z,5.18
2018-02-06T10:12:45.047Z,5.12
2018-02-06T10:15:12.599Z,5.28
2018-02-06T10:17:40.155Z,5.42
2018-02-06T10:20:07.749Z,5.46
2018-02-06T10:22:35.302Z,5.30
2018-02-06T10:25:02.847Z,5.45
2018-02-06T10:27:30.425Z,5.42
2018-02-06T10:29:57.969Z,5.21
2018-02-06T10:32:25.508Z,5.35
2018-02-06T10:34:53.084Z,5.52
2018-02-06T10:37:20.637Z,5.42
2018-02-06T10:39:48.699Z,5.63
2018-02-06T10:42:16.472Z,5.57
2018-02-06T10:44:44.054Z,5.42
2018-02-06T10:47:11.608Z,5.42
2018-02-06T10:49:39.177Z,5.50
2018-02-06T10:52:06.723Z,5.72
2018-02-06T10:54:34.289Z,5.68
2018-02-06T10:57:02.179Z,5.74
2018-02-06T10:59:29.727Z,5.75
2018-02-06T11:01:57.416Z,5.64
2018-02-06T11:04:24.981Z,5.81
2018-02-06T11:06:52.531Z,5.89
2018-02-06T11:09:20.120Z,5.85
2018-02-06T11:11:47.668Z,6.04
2018-02-06T11:14:15.222Z,6.11
2018-02-06T11:16:42.816Z,6.26
2018-02-06T11:19:10.370Z,6.36
2018-02-06T11:21:37.933Z,6.54
2018-02-06T11:24:05.660Z,6.62
2018-02-06T11:26:33.226Z,6.61
2018-02-06T11:29:00.783Z,6.43
2018-02-06T11:31:28.364Z,6.62
2018-02-06T11:33:55.908Z,6.72
2018-02-06T11:36:23.457Z,6.82
2018-02-06T11:38:51.144Z,6.96
2018-02-06T11:41:18.698Z,6.93
2018-02-06T11:43:46.245Z,6.89
2018-02-06T11:46:13.995Z,7.10
2018-02-06T11:48:41.574Z,7.22
2018-02-06T11:51:09.131Z,7.31
2018-02-06T11:53:36.733Z,7.31
2018-02-06T11:56:04.278Z,7.34
2018-02-06T11:58:31.826Z,7.14
2018-02-06T12:00:59.555Z,7.12
2018-02-06T12:03:27.105Z,7.26
2018-02-06T12:05:54.647Z,7.37
2018-02-06T12:08:22.221Z,7.27
2018-02-06T12:10:52.783Z,7.36
2018-02-06T12:13:20.335Z,7.16
2018-02-06T12:15:48.017Z,7.37
2018-02-06T12:18:15.583Z,7.49
2018-02-06T12:20:43.148Z,7.57
2018-02-06T12:23:10.765Z,7.49
2018-02-06T12:25:38.310Z,7.65
2018-02-06T12:28:05.866Z,7.61
2018-02-06T12:30:33.609Z,7.59
2018-02-06T12:33:01.155Z,7.73
2018-02-06T12:35:28.702Z,7.65
2018-02-06T12:37:56.311Z,7.60
2018-02-06T12:40:23.866Z,7.41
2018-02-06T12:42:51.429Z,7.40
2018-02-06T12:45:19.001Z,7.22
2018-02-06T12:47:46.558Z,7.21
2018-02-06T12:50:14.120Z,7.03
2018-02-06T12:52:41.719Z,7.18
2018-02-06T12:55:09.263Z,7.22
2018-02-06T12:57:36.825Z,7.19
2018-02-06T13:00:04.568Z,7.35
2018-02-06T13:02:32.117Z,7.43
2018-02-06T13:04:59.657Z,7.47
2018-02-06T13:07:27.423Z,7.39
2018-02-06T13:09:54.977Z,7.35
2018-02-06T13:12:22.536Z,7.44
2018-02-06T13:14:50.234Z,7.65
2018-02-06T13:17:17.819Z,7.61
2018-02-06T13:19:45.370Z,7.47
2018-02-06T13:22:12.957Z,7.57
2018-02-06T13:24:40.502Z,7.65
2018-02-06T13:27:08.054Z,7.68
2018-02-06T13:29:35.650Z,7.57
2018-02-06T13:32:03.213Z,7.44
2018-02-06T13:34:31.391Z,7.56
2018-02-06T13:36:59.135Z,7.52
2018-02-06T13:39:28.814Z,7.52
2018-02-06T13:41:56.388Z,7.49
2018-02-06T13:44:24.485Z,7.43
2018-02-06T13:46:52.044Z,7.47
2018-02-06T13:49:19.602Z,7.44
2018-02-06T13:51:47.302Z,7.49
2018-02-06T13:54:14.845Z,7.50
2018-02-06T13:56:42.392Z,7.29
2018-02-06T13:59:09.978Z,7.35
2018-02-06T14:01:37.542Z,7.12
2018-02-06T14:04:05.126Z,7.38
2018-02-06T14:06:32.862Z,7.42
2018-02-06T14:09:00.413Z,7.50
2018-02-06T14:11:27.985Z,7.46
2018-02-06T14:13:55.569Z,7.39
2018-02-06T14:16:23.141Z,7.46
2018-02-06T14:18:50.731Z,7.29
2018-02-06T14:21:18.342Z,7.32
2018-02-06T14:23:45.895Z,7.20
2018-02-06T14:26:13.451Z,7.22
2018-02-06T14:28:41.141Z,7.11
2018-02-06T14:31:08.702Z,7.25
2018-02-06T14:33:36.325Z,7.31
2018-02-06T14:36:03.908Z,7.23
2018-02-06T14:38:31.490Z,7.29
2018-02-06T14:40:59.109Z,7.04
2018-02-06T14:43:26.711Z,6.90
2018-02-06T14:45:54.318Z,6.87
2018-02-06T14:48:21.888Z,6.79
2018-02-06T14:50:49.591Z,6.56
2018-02-06T14:53:17.168Z,6.47
2018-02-06T14:55:44.726Z,6.40
2018-02-06T14:58:12.317Z,6.51
2018-02-06T15:00:39.916Z,6.65
2018-02-06T15:03:07.480Z,6.76
2018-02-06T15:05:35.552Z,6.72
2018-02-06T15:08:03.118Z,6.72
2018-02-06T15:10:30.671Z,6.32
2018-02-06T15:12:58.248Z,5.88
2018-02-06T15:15:26.308Z,5.52
2018-02-06T15:17:53.871Z,5.30
2018-02-06T15:20:21.750Z,5.16
2018-02-06T15:22:49.325Z,4.99
2018-02-06T15:25:16.920Z,4.92
2018-02-06T15:27:44.485Z,4.78
2018-02-06T15:30:12.130Z,4.71
2018-02-06T15:32:39.694Z,4.58
2018-02-06T15:35:07.406Z,4.47
2018-02-06T15:37:34.964Z,4.40
2018-02-06T15:40:02.576Z,4.49
2018-02-06T15:42:30.315Z,4.57
2018-02-06T15:44:57.911Z,4.60
2018-02-06T15:47:25.492Z,4.59
2018-02-06T15:49:53.238Z,4.71
2018-02-06T15:52:20.798Z,4.45
2018-02-06T15:54:48.376Z,4.31
2018-02-06T15:57:15.957Z,4.13
2018-02-06T15:59:43.537Z,3.99
2018-02-06T16:02:11.182Z,3.92
2018-02-06T16:04:38.738Z,4.08
2018-02-06T16:07:06.295Z,3.97
2018-02-06T16:09:34.160Z,3.90
2018-02-06T16:12:01.789Z,3.88
2018-02-06T16:14:29.349Z,3.83
2018-02-06T16:16:57.064Z,3.78
2018-02-06T16:19:24.617Z,3.69
2018-02-06T16:21:52.185Z,3.68
2018-02-06T16:24:19.871Z,3.89
2018-02-06T16:26:47.425Z,3.61
2018-02-06T16:29:14.974Z,3.83
2018-02-06T16:31:42.707Z,3.68
2018-02-06T16:34:10.267Z,3.70
2018-02-06T16:36:37.836Z,3.66
2018-02-06T16:39:05.622Z,3.70
2018-02-06T16:41:33.177Z,3.61
2018-02-06T16:44:00.757Z,3.65
2018-02-06T16:46:28.704Z,3.88
2018-02-06T16:48:56.266Z,3.79
2018-02-06T16:51:23.851Z,3.91
2018-02-06T16:53:51.459Z,3.94
2018-02-06T16:56:19.036Z,3.87
2018-02-06T16:58:46.605Z,3.60
2018-02-06T17:01:14.242Z,3.57
2018-02-06T17:03:41.810Z,3.85
2018-02-06T17:06:09.360Z,3.99
2018-02-06T17:08:37.884Z,3.93
2018-02-06T17:11:05.463Z,3.81
2018-02-06T17:13:33.024Z,4.02
2018-02-06T17:16:00.766Z,3.99
2018-02-06T17:18:28.327Z,3.94
2018-02-06T17:20:56.016Z,3.94
2018-02-06T17:23:23.627Z,3.75
2018-02-06T17:25:51.217Z,3.36
2018-02-06T17:28:18.765Z,3.51
2018-02-06T17:30:46.530Z,3.72
2018-02-06T17:33:14.080Z,3.36
2018-02-06T17:35:41.650Z,3.09
2018-02-06T17:38:09.384Z,3.08
2018-02-06T17:40:36.959Z,3.20
2018-02-06T17:43:04.514Z,3.18
2018-02-06T17:45:32.526Z,2.98
2018-02-06T17:48:00.090Z,3.08
2018-02-06T17:50:27.638Z,3.12
2018-02-06T17:52:55.559Z,3.10
2018-02-06T17:55:23.129Z,3.23
2018-02-06T17:57:50.677Z,3.37
2018-02-06T18:00:18.419Z,3.39
2018-02-06T18:02:46.008Z,3.35
2018-02-06T18:05:13.578Z,2.95
2018-02-06T18:07:41.250Z,2.72
2018-02-06T18:10:08.920Z,2.57
2018-02-06T18:12:36.516Z,2.49
2018-02-06T18:15:04.344Z,2.38
2018-02-06T18:17:31.904Z,2.54
2018-02-06T18:19:59.472Z,2.49
2018-02-06T18:22:27.077Z,2.27
2018-02-06T18:24:54.626Z,2.21
2018-02-06T18:27:24.180Z,2.30
2018-02-06T18:29:52.066Z,2.46
2018-02-06T18:32:20.372Z,2.23
2018-02-06T18:34:47.929Z,2.07
2018-02-06T18:37:15.666Z,2.00
2018-02-06T18:39:43.277Z,2.02
2018-02-06T18:42:10.851Z,1.98
2018-02-06T18:44:38.444Z,2.05
2018-02-06T18:47:06.041Z,2.17
2018-02-06T18:49:34.964Z,2.40
2018-02-06T18:52:02.657Z,2.48
2018-02-06T18:54:30.244Z,2.67
2018-02-06T18:56:57.879Z,2.89
2018-02-06T18:59:26.154Z,3.03
2018-02-06T19:01:53.722Z,3.18
2018-02-06T19:04:22.065Z,3.15
2018-02-06T19:06:49.674Z,3.14
2018-02-06T19:09:17.254Z,3.24
2018-02-06T19:11:44.868Z,3.22
2018-02-06T19:14:12.516Z,3.29
2018-02-06T19:16:40.075Z,3.40
2018-02-06T19:19:07.690Z,3.28
2018-02-06T19:21:35.436Z,3.35
2018-02-06T19:24:03.013Z,3.41
2018-02-06T19:26:30.590Z,3.30
2018-02-06T19:28:58.492Z,2.62
2018-02-06T19:31:26.064Z,2.20
2018-02-06T19:33:53.645Z,2.11
2018-02-06T19:36:21.613Z,1.99
2018-02-06T19:38:49.220Z,1.86
2018-02-06T19:41:16.788Z,1.94
2018-02-06T19:43:44.439Z,1.87
2018-02-06T19:46:12.046Z,1.80
2018-02-06T19:48:39.632Z,1.89
2018-02-06T19:51:07.669Z,2.03
2018-02-06T19:53:35.245Z,2.04
2018-02-06T19:56:02.836Z,1.80
2018-02-06T19:58:30.568Z,2.01
2018-02-06T20:00:58.138Z,2.02
2018-02-06T20:03:25.766Z,2.07
2018-02-06T20:05:53.454Z,2.13
2018-02-06T20:08:21.016Z,2.10
2018-02-06T20:10:48.566Z,1.70
2018-02-06T20:13:16.166Z,1.67
2018-02-06T20:15:43.764Z,1.76
2018-02-06T20:18:13.282Z,1.69
2018-02-06T20:20:41.009Z,1.41
2018-02-06T20:23:08.612Z,1.35
2018-02-06T20:25:36.171Z,1.36
2018-02-06T20:28:03.841Z,1.35
2018-02-06T20:30:31.405Z,1.28
2018-02-06T20:32:58.987Z,1.39
2018-02-06T20:35:26.565Z,1.56
2018-02-06T20:37:54.128Z,1.40
2018-02-06T20:40:21.687Z,1.18
2018-02-06T20:42:49.404Z,1.18
2018-02-06T20:45:16.985Z,1.05
2018-02-06T20:47:45.158Z,1.11
2018-02-06T20:50:12.752Z,1.17
2018-02-06T20:52:40.504Z,0.97
2018-02-06T20:55:08.077Z,0.90
2018-02-06T20:57:35.636Z,0.74
2018-02-06T21:00:03.285Z,0.72
2018-02-06T21:02:31.043Z,0.71
2018-02-06T21:04:58.597Z,0.69
2018-02-06T21:07:26.171Z,0.74
2018-02-06T21:09:53.815Z,0.83
2018-02-06T21:12:21.391Z,1.03
2018-02-06T21:14:48.968Z,1.24
2018-02-06T21:17:16.656Z,1.32
2018-02-06T21:19:44.217Z,1.32
2018-02-06T21:22:11.794Z,1.44
2018-02-06T21:24:39.391Z,1.57
2018-02-06T21:27:06.955Z,1.61
2018-02-06T21:29:34.580Z,1.56
2018-02-06T21:32:02.317Z,1.54
2018-02-06T21:34:29.870Z,1.57
2018-02-06T21:36:57.421Z,1.71
2018-02-06T21:39:25.021Z,1.68
2018-02-06T21:41:53.551Z,1.85
2018-02-06T21:44:21.108Z,2.07
2018-02-06T21:46:48.858Z,2.14
2018-02-06T21:49:16.434Z,1.71
2018-02-06T21:51:44.010Z,1.81
2018-02-06T21:54:11.903Z,1.67
2018-02-06T21:56:39.470Z,1.48
2018-02-06T21:59:07.076Z,1.54
2018-02-06T22:01:34.686Z,1.46
2018-02-06T22:04:02.230Z,1.26
2018-02-06T22:06:29.786Z,1.20
2018-02-06T22:08:57.381Z,1.26
2018-02-06T22:11:24.931Z,1.39
2018-02-06T22:13:52.476Z,1.47
2018-02-06T22:16:20.393Z,1.39
2018-02-06T22:18:47.943Z,1.52
2018-02-06T22:21:15.501Z,1.25
2018-02-06T22:23:43.235Z,1.24
2018-02-06T22:26:10.797Z,1.38
2018-02-06T22:28:38.352Z,1.45
2018-02-06T22:31:06.100Z,1.54
2018-02-06T22:33:33.645Z,1.34
2018-02-06T22:36:01.204Z,1.38
2018-02-06T22:38:28.944Z,1.33
2018-02-06T22:40:56.506Z,1.37
2018-02-06T22:43:24.047Z,1.49
2018-02-06T22:45:51.642Z,1.54
2018-02-06T22:48:19.196Z,1.57
2018-02-06T22:50:46.755Z,1.78
2018-02-06T22:53:14.356Z,1.79
2018-02-06T22:55:41.898Z,1.60
2018-02-06T22:58:09.456Z,1.58
2018-02-06T23:00:37.266Z,1.48
2018-02-06T23:03:04.808Z,1.71
2018-02-06T23:05:32.356Z,1.52
2018-02-06T23:07:59.952Z,1.79
2018-02-06T23:10:27.499Z,2.00
2018-02-06T23:12:55.059Z,1.94
2018-02-06T23:15:22.676Z,1.62
2018-02-06T23:17:50.225Z,1.40
2018-02-06T23:20:17.786Z,1.43
2018-02-06T23:22:45.520Z,1.24
2018-02-06T23:25:13.074Z,1.09
2018-02-06T23:27:40.625Z,0.87
2018-02-06T23:30:08.231Z,1.09
2018-02-06T23:32:35.789Z,1.06
2018-02-06T23:35:03.341Z,1.02
2018-02-06T23:37:31.213Z,0.89
2018-02-06T23:39:58.767Z,0.78
2018-02-06T23:42:26.332Z,0.67
2018-02-06T23:44:54.078Z,0.67
2018-02-06T23:47:21.621Z,0.85
2018-02-06T23:49:49.167Z,0.90
2018-02-06T23:52:16.905Z,0.87
2018-02-06T23:54:44.470Z,0.80
2018-02-06T23:57:12.022Z,1.00
2018-02-06T23:59:40.962Z,1.07
